Time;durP1;ratioP1;P1;durP2;ratioP2;P2;SDS_P1;SDS_P2;PMS_P1;PMS_P2;Temp;Humidity;BMP_temperature;BMP_pressure;BME280_temperature;BME280_humidity;BME280_pressure;Samples;Min_cycle;Max_cycle;Signal;HPM_P1;HPM_P2
2022/07/21 00:01:00;;;;;;;10.40;9.45;;;23.70;91.90;;;;;;944192;150;27316;-76
2022/07/21 00:03:27;;;;;;;9.58;8.68;;;23.70;92.10;;;;;;944074;151;27786;-75
2022/07/21 00:05:53;;;;;;;9.90;9.10;;;23.60;92.20;;;;;;942210;151;27302;-76
2022/07/21 00:08:20;;;;;;;10.43;9.43;;;23.70;92.40;;;;;;938174;152;27280;-76
2022/07/21 00:10:47;;;;;;;9.30;8.50;;;23.60;92.40;;;;;;938777;151;27379;-75
2022/07/21 00:13:13;;;;;;;10.08;9.15;;;23.60;92.40;;;;;;938049;151;27265;-75
2022/07/21 00:15:40;;;;;;;10.20;8.95;;;23.60;92.40;;;;;;938708;149;27373;-76
2022/07/21 00:18:06;;;;;;;9.38;8.68;;;23.60;92.40;;;;;;938226;151;27289;-75
2022/07/21 00:20:33;;;;;;;9.83;8.83;;;23.60;92.30;;;;;;938678;152;27341;-75
2022/07/21 00:23:00;;;;;;;10.45;9.55;;;23.50;92.40;;;;;;938742;152;27255;-76
2022/07/21 00:25:26;;;;;;;10.15;9.15;;;23.50;92.40;;;;;;938611;152;27305;-76
2022/07/21 00:27:53;;;;;;;9.55;8.73;;;23.50;92.50;;;;;;938285;152;27438;-75
2022/07/21 00:30:20;;;;;;;9.45;8.73;;;23.40;92.80;;;;;;937881;152;27455;-75
2022/07/21 00:32:46;;;;;;;10.08;9.13;;;23.40;93.10;;;;;;938382;151;27226;-75
2022/07/21 00:35:12;;;;;;;11.15;9.40;;;23.40;93.40;;;;;;938656;152;27322;-76
2022/07/21 00:37:39;;;;;;;11.08;10.08;;;23.40;93.60;;;;;;938555;152;27324;-76
2022/07/21 00:40:06;;;;;;;9.70;8.90;;;23.40;93.80;;;;;;937352;150;27358;-76
2022/07/21 00:42:32;;;;;;;10.70;9.73;;;23.30;93.90;;;;;;936579;150;27438;-76
2022/07/21 00:44:59;;;;;;;10.28;9.38;;;23.30;94.00;;;;;;938071;150;27385;-76
2022/07/21 00:47:25;;;;;;;10.55;9.65;;;23.30;94.20;;;;;;938284;149;27282;-76
2022/07/21 00:49:52;;;;;;;10.28;9.38;;;23.30;94.20;;;;;;939329;149;27291;-75
2022/07/21 00:52:19;;;;;;;10.05;9.18;;;23.30;94.30;;;;;;937595;149;27486;-76
2022/07/21 00:54:45;;;;;;;9.53;8.73;;;23.30;94.50;;;;;;939334;149;27348;-76
2022/07/21 00:57:12;;;;;;;10.43;9.53;;;23.30;94.50;;;;;;939703;149;27389;-76
2022/07/21 00:59:38;;;;;;;9.60;8.63;;;23.30;94.50;;;;;;939589;149;27345;-76
2022/07/21 01:02:05;;;;;;;9.28;8.38;;;23.30;94.60;;;;;;921806;152;27420;-76
2022/07/21 01:04:32;;;;;;;9.65;8.78;;;23.20;94.60;;;;;;931271;149;27291;-76
2022/07/21 01:06:58;;;;;;;9.70;8.90;;;23.20;94.80;;;;;;942582;148;27420;-76
2022/07/21 01:09:25;;;;;;;9.35;8.63;;;23.20;95.10;;;;;;927121;152;27434;-76
2022/07/21 01:11:51;;;;;;;9.45;8.65;;;23.20;95.20;;;;;;945676;151;27305;-76
2022/07/21 01:14:18;;;;;;;8.78;7.85;;;23.20;95.80;;;;;;946147;149;27421;-76
2022/07/21 01:16:45;;;;;;;8.58;7.75;;;23.20;95.40;;;;;;921592;154;27452;-76
2022/07/21 01:19:11;;;;;;;8.58;7.80;;;23.20;95.50;;;;;;941309;150;27423;-76
2022/07/21 01:21:40;;;;;;;8.50;7.37;;;23.20;95.60;;;;;;933548;152;27692;-75
2022/07/21 01:24:07;;;;;;;8.20;7.42;;;23.30;95.50;;;;;;932317;152;27249;-76
2022/07/21 01:26:42;;;;;;;8.38;7.67;;;23.30;95.50;;;;;;946095;151;27284;-75
2022/07/21 01:29:10;;;;;;;8.68;7.87;;;23.30;95.60;;;;;;936567;152;27320;-75
2022/07/21 01:31:36;;;;;;;7.10;6.47;;;23.20;95.40;;;;;;937853;153;27438;-76
2022/07/21 01:34:02;;;;;;;7.97;7.25;;;23.30;95.50;;;;;;938128;153;27384;-75
2022/07/21 01:36:29;;;;;;;8.15;7.35;;;23.30;95.60;;;;;;938274;153;27537;-75
2022/07/21 01:41:40;;;;;;;7.50;6.90;;;23.30;95.90;;;;;;938332;152;27371;-75
2022/07/21 01:44:07;;;;;;;8.90;6.83;;;23.30;95.60;;;;;;938522;150;27334;-75
2022/07/21 01:46:36;;;;;;;7.40;6.80;;;23.20;95.60;;;;;;938139;152;27383;-75
2022/07/21 01:49:03;;;;;;;7.28;6.58;;;23.20;95.60;;;;;;937690;153;27305;-75
2022/07/21 01:51:29;;;;;;;7.53;6.92;;;23.20;95.70;;;;;;937797;150;27553;-75
2022/07/21 01:53:56;;;;;;;7.62;6.92;;;23.20;95.60;;;;;;938384;152;27829;-75
2022/07/21 01:56:22;;;;;;;7.37;6.80;;;23.20;95.50;;;;;;938072;153;27349;-75
2022/07/21 01:58:49;;;;;;;8.20;7.50;;;23.20;95.50;;;;;;938131;150;27396;-75
2022/07/21 02:01:18;;;;;;;9.00;8.10;;;23.10;95.50;;;;;;937935;152;27344;-75
2022/07/21 02:03:45;;;;;;;8.60;7.80;;;23.10;95.50;;;;;;937651;152;27358;-75
2022/07/21 02:06:12;;;;;;;8.43;7.62;;;23.10;95.50;;;;;;937884;152;27282;-75
2022/07/21 02:08:38;;;;;;;7.90;7.25;;;23.00;95.40;;;;;;929197;150;27426;-76
2022/07/21 02:11:05;;;;;;;8.98;8.03;;;23.00;95.50;;;;;;925128;153;27427;-76
2022/07/21 02:13:31;;;;;;;8.13;7.47;;;22.90;95.50;;;;;;922449;153;27989;-75
2022/07/21 02:15:58;;;;;;;8.15;7.37;;;22.90;95.60;;;;;;925607;153;27744;-75
2022/07/21 02:18:25;;;;;;;8.93;8.13;;;22.80;95.60;;;;;;939720;152;27301;-75
2022/07/21 02:20:51;;;;;;;8.08;7.22;;;22.80;95.90;;;;;;939603;152;27339;-75
2022/07/21 02:23:18;;;;;;;8.45;7.65;;;22.70;96.00;;;;;;931719;153;27354;-75
2022/07/21 02:25:44;;;;;;;9.35;8.55;;;22.70;96.30;;;;;;931896;154;27466;-76
2022/07/21 02:28:11;;;;;;;9.30;8.50;;;22.70;96.50;;;;;;931410;152;27423;-75
2022/07/21 02:30:38;;;;;;;9.33;8.35;;;22.70;96.70;;;;;;932122;152;27271;-75
2022/07/21 02:33:04;;;;;;;10.53;9.60;;;22.70;96.80;;;;;;931829;152;27356;-75
2022/07/21 02:35:31;;;;;;;9.68;8.73;;;22.70;97.00;;;;;;931880;152;27350;-76
2022/07/21 02:37:57;;;;;;;9.48;8.68;;;22.70;97.10;;;;;;931814;153;27350;-76
2022/07/21 02:40:24;;;;;;;10.03;9.13;;;22.70;97.10;;;;;;931567;153;27369;-76
2022/07/21 02:42:50;;;;;;;10.58;9.75;;;22.60;97.10;;;;;;931544;153;27342;-77
2022/07/21 02:45:17;;;;;;;10.78;9.63;;;22.70;97.30;;;;;;931877;152;27315;-77
2022/07/21 02:47:56;;;;;;;11.28;10.30;;;22.70;97.50;;;;;;931507;154;27359;-76
2022/07/21 02:50:22;;;;;;;10.72;9.83;;;22.70;97.80;;;;;;930450;151;27386;-76
2022/07/21 02:52:49;;;;;;;11.05;10.13;;;22.70;97.90;;;;;;930882;151;27518;-76
2022/07/21 02:55:15;;;;;;;11.12;10.23;;;22.70;98.00;;;;;;931178;154;27315;-76
2022/07/21 02:57:42;;;;;;;11.45;10.23;;;22.70;98.10;;;;;;931171;152;27291;-76
2022/07/21 03:00:09;;;;;;;11.45;10.32;;;22.70;98.10;;;;;;931810;154;27906;-77
2022/07/21 03:02:35;;;;;;;11.70;10.60;;;22.80;98.30;;;;;;931427;154;27455;-76
2022/07/21 03:05:02;;;;;;;10.93;10.00;;;22.80;98.30;;;;;;931115;153;27397;-76
2022/07/21 03:07:28;;;;;;;11.48;10.48;;;22.80;98.30;;;;;;931955;151;27767;-76
2022/07/21 03:09:55;;;;;;;12.28;11.05;;;22.90;98.30;;;;;;937330;151;27409;-76
2022/07/21 03:12:22;;;;;;;11.45;10.48;;;22.90;98.30;;;;;;938923;151;27322;-76
2022/07/21 03:14:48;;;;;;;12.20;10.95;;;22.90;98.40;;;;;;938979;151;27333;-76
2022/07/21 03:17:15;;;;;;;12.37;11.28;;;23.00;98.40;;;;;;939380;151;27827;-76
2022/07/21 03:19:41;;;;;;;11.88;10.88;;;23.00;98.40;;;;;;938777;151;28324;-76
2022/07/21 03:22:08;;;;;;;12.05;10.90;;;23.00;98.30;;;;;;938094;151;27349;-76
2022/07/21 03:24:35;;;;;;;12.70;11.38;;;23.00;98.30;;;;;;937369;151;27407;-76
2022/07/21 03:27:01;;;;;;;11.20;10.20;;;23.00;98.30;;;;;;936998;151;27308;-77
2022/07/21 03:29:28;;;;;;;11.43;10.32;;;23.00;98.10;;;;;;938022;151;27393;-77
2022/07/21 03:31:54;;;;;;;10.80;9.90;;;23.00;98.00;;;;;;938776;151;27455;-77
2022/07/21 03:34:21;;;;;;;10.40;9.40;;;23.00;97.90;;;;;;938343;151;27511;-76
2022/07/21 03:36:48;;;;;;;10.40;9.40;;;23.00;97.80;;;;;;938041;151;28323;-77
2022/07/21 03:39:14;;;;;;;9.28;8.50;;;23.00;97.70;;;;;;937714;151;27330;-76
2022/07/21 03:41:41;;;;;;;9.73;8.83;;;23.00;97.50;;;;;;938606;151;27298;-77
2022/07/21 03:44:08;;;;;;;9.35;8.48;;;23.00;97.30;;;;;;940135;151;27376;-77
2022/07/21 03:46:34;;;;;;;8.83;8.03;;;22.90;97.20;;;;;;940031;151;27465;-76
2022/07/21 03:49:01;;;;;;;8.15;7.47;;;22.90;97.10;;;;;;938708;151;27337;-76
2022/07/21 03:51:27;;;;;;;7.45;6.85;;;22.80;96.70;;;;;;939446;151;27397;-76
2022/07/21 03:53:54;;;;;;;7.05;6.42;;;22.80;96.50;;;;;;938645;150;27345;-77
2022/07/21 03:56:20;;;;;;;6.65;6.10;;;22.80;96.40;;;;;;937553;151;27349;-77
2022/07/21 03:58:47;;;;;;;7.53;6.83;;;22.70;96.40;;;;;;938519;151;27356;-76
2022/07/21 04:01:14;;;;;;;7.08;6.47;;;22.70;96.50;;;;;;937871;151;27706;-76
2022/07/21 04:03:40;;;;;;;6.42;5.83;;;22.60;96.80;;;;;;938416;151;27431;-77
2022/07/21 04:06:10;;;;;;;6.70;6.20;;;22.60;96.90;;;;;;937884;151;27349;-76
2022/07/21 04:08:33;;;;;;;6.78;6.17;;;22.60;97.30;;;;;;934629;151;27350;-77
2022/07/21 04:11:00;;;;;;;6.87;6.28;;;22.60;97.40;;;;;;939950;151;27447;-77
2022/07/21 04:13:27;;;;;;;6.78;6.12;;;22.60;97.40;;;;;;939864;152;27704;-77
2022/07/21 04:15:53;;;;;;;6.03;5.60;;;22.60;97.40;;;;;;931267;154;27415;-77
2022/07/21 04:18:20;;;;;;;6.33;5.83;;;22.60;97.40;;;;;;927568;153;27307;-76
2022/07/21 04:20:46;;;;;;;6.53;6.03;;;22.60;97.40;;;;;;939839;150;27406;-76
2022/07/21 04:23:13;;;;;;;6.70;5.87;;;22.60;97.40;;;;;;939966;152;27316;-77
2022/07/21 04:25:40;;;;;;;6.80;6.20;;;22.70;97.60;;;;;;926621;151;27477;-76
2022/07/21 04:28:07;;;;;;;6.05;5.53;;;22.70;97.70;;;;;;928479;154;27266;-77
2022/07/21 04:30:33;;;;;;;6.45;5.95;;;22.70;97.80;;;;;;926949;153;27266;-77
2022/07/21 04:32:59;;;;;;;6.00;5.53;;;22.80;97.70;;;;;;939446;152;27284;-76
2022/07/21 04:35:26;;;;;;;6.67;6.17;;;22.80;97.70;;;;;;932176;152;27375;-77
2022/07/21 04:37:52;;;;;;;6.55;6.00;;;22.90;97.80;;;;;;931949;152;27970;-77
2022/07/21 04:40:19;;;;;;;7.12;6.53;;;22.90;97.60;;;;;;931917;151;27286;-76
2022/07/21 04:42:46;;;;;;;7.50;6.85;;;22.90;97.60;;;;;;939937;152;27676;-77
2022/07/21 04:45:12;;;;;;;7.03;6.42;;;23.00;97.40;;;;;;940254;150;27370;-76
2022/07/21 04:47:48;;;;;;;7.45;6.75;;;23.00;97.40;;;;;;932242;152;27459;-76
2022/07/21 04:50:14;;;;;;;7.47;6.87;;;23.00;97.30;;;;;;924801;154;27402;-76
2022/07/21 04:52:41;;;;;;;6.92;6.35;;;23.00;97.70;;;;;;925336;152;27378;-77
2022/07/21 04:55:07;;;;;;;7.55;6.78;;;23.00;97.30;;;;;;933299;151;27388;-77
2022/07/21 04:57:39;;;;;;;7.60;7.00;;;23.10;97.30;;;;;;925773;153;27386;-76
2022/07/21 05:00:06;;;;;;;7.35;6.75;;;23.10;97.20;;;;;;925449;155;27354;-76
2022/07/21 05:02:33;;;;;;;7.87;7.17;;;23.10;97.30;;;;;;925515;154;27386;-76
2022/07/21 05:05:01;;;;;;;7.53;6.83;;;23.10;97.30;;;;;;925142;154;27372;-76
2022/07/21 05:07:26;;;;;;;7.50;6.90;;;23.10;97.30;;;;;;924221;155;27437;-77
2022/07/21 05:09:53;;;;;;;7.08;6.37;;;23.20;97.30;;;;;;941983;148;27349;-76
2022/07/21 05:12:19;;;;;;;6.70;6.08;;;23.20;97.10;;;;;;934544;151;27399;-77
2022/07/21 05:14:46;;;;;;;6.70;6.10;;;23.20;97.50;;;;;;951820;149;27339;-76
2022/07/21 05:17:12;;;;;;;6.55;6.05;;;23.40;99.10;;;;;;952323;148;27433;-76
2022/07/21 05:19:39;;;;;;;6.08;5.47;;;23.60;99.90;;;;;;950501;148;27688;-76
2022/07/21 05:22:05;;;;;;;6.12;5.62;;;23.90;99.90;;;;;;949657;148;28106;-76
2022/07/21 05:24:32;;;;;;;6.00;5.50;;;24.30;99.90;;;;;;949742;149;27398;-77
2022/07/21 05:26:59;;;;;;;6.80;5.25;;;24.90;99.90;;;;;;950792;148;27844;-77
2022/07/21 05:29:25;;;;;;;5.22;4.75;;;25.40;99.90;;;;;;935071;151;27356;-77
2022/07/21 05:31:52;;;;;;;4.80;4.40;;;26.10;99.90;;;;;;926590;152;27441;-77
2022/07/21 05:34:18;;;;;;;4.85;4.40;;;26.70;97.70;;;;;;946199;148;27317;-77
2022/07/21 05:36:45;;;;;;;4.87;4.50;;;27.30;94.70;;;;;;950626;149;27246;-77
2022/07/21 05:39:12;;;;;;;5.42;4.92;;;27.70;93.10;;;;;;950223;149;27345;-77
2022/07/21 05:41:38;;;;;;;5.45;4.95;;;28.10;91.10;;;;;;951415;149;27464;-77
2022/07/21 05:44:05;;;;;;;4.35;4.05;;;28.30;88.50;;;;;;934940;151;27289;-77
2022/07/21 05:46:31;;;;;;;4.85;4.55;;;28.60;87.20;;;;;;950369;148;27281;-77
2022/07/21 05:48:58;;;;;;;4.80;4.37;;;28.90;84.60;;;;;;951475;148;27312;-77
2022/07/21 05:51:25;;;;;;;5.12;4.65;;;29.00;81.80;;;;;;938520;149;27327;-77
2022/07/21 05:53:51;;;;;;;4.58;4.28;;;29.10;79.40;;;;;;937811;151;27395;-77
2022/07/21 05:56:18;;;;;;;4.90;4.50;;;29.20;78.70;;;;;;950279;149;27437;-77
2022/07/21 05:58:44;;;;;;;4.78;4.40;;;29.30;78.70;;;;;;939683;149;27464;-77
2022/07/21 06:01:16;;;;;;;5.05;4.50;;;29.50;79.30;;;;;;938191;151;27323;-77
2022/07/21 06:03:41;;;;;;;4.65;4.33;;;29.80;79.20;;;;;;938172;151;27349;-77
2022/07/21 06:06:07;;;;;;;15.25;3.83;;;30.20;80.10;;;;;;933509;151;27359;-77
2022/07/21 06:08:34;;;;;;;4.10;3.80;;;30.70;79.60;;;;;;933692;151;27444;-77
2022/07/21 06:11:00;;;;;;;3.92;3.50;;;31.30;78.30;;;;;;942201;149;27464;-77
2022/07/21 06:13:27;;;;;;;4.28;3.98;;;31.90;76.80;;;;;;938501;149;27319;-76
2022/07/21 06:15:54;;;;;;;4.15;3.80;;;32.50;75.40;;;;;;921870;152;27340;-77
2022/07/21 06:18:20;;;;;;;4.35;3.95;;;33.20;72.00;;;;;;936781;150;27341;-76
2022/07/21 06:20:46;;;;;;;4.10;3.80;;;33.80;69.70;;;;;;939458;150;27480;-76
2022/07/21 06:23:13;;;;;;;3.52;3.33;;;34.40;68.20;;;;;;923271;152;27641;-76
2022/07/21 06:25:40;;;;;;;4.05;3.33;;;34.90;66.60;;;;;;921962;151;26234;-76
2022/07/21 06:28:06;;;;;;;3.62;3.25;;;35.50;64.20;;;;;;922086;152;26217;-77
2022/07/21 06:30:33;;;;;;;4.15;3.52;;;36.00;62.00;;;;;;921975;152;26281;-78
2022/07/21 06:32:59;;;;;;;3.75;3.40;;;36.50;60.70;;;;;;918391;153;26367;-77
2022/07/21 06:35:26;;;;;;;3.45;3.25;;;36.90;59.80;;;;;;922163;152;26795;-77
2022/07/21 06:37:53;;;;;;;3.40;3.10;;;37.30;58.90;;;;;;937933;151;26225;-77
2022/07/21 06:40:19;;;;;;;3.75;3.15;;;37.80;58.20;;;;;;937439;151;26225;-77
2022/07/21 06:42:46;;;;;;;3.47;3.20;;;38.20;56.60;;;;;;939122;151;27440;-77
2022/07/21 06:45:13;;;;;;;3.72;3.37;;;38.50;54.90;;;;;;938124;151;27485;-77
2022/07/21 06:47:40;;;;;;;3.20;3.00;;;38.50;53.10;;;;;;938327;151;26410;-77
2022/07/21 06:50:06;;;;;;;3.50;3.20;;;38.40;51.60;;;;;;938242;151;27322;-77
2022/07/21 06:52:32;;;;;;;3.55;3.25;;;38.00;50.60;;;;;;937065;151;27393;-77
2022/07/21 06:54:59;;;;;;;3.62;3.33;;;37.60;50.40;;;;;;937212;151;27425;-77
2022/07/21 06:57:25;;;;;;;3.87;3.58;;;36.90;50.20;;;;;;939446;151;27436;-77
2022/07/21 06:59:52;;;;;;;4.12;3.17;;;36.30;50.90;;;;;;937141;151;27365;-77
2022/07/21 07:02:19;;;;;;;3.42;3.12;;;35.90;51.40;;;;;;937357;151;27331;-76
2022/07/21 07:04:45;;;;;;;3.27;2.98;;;35.50;52.00;;;;;;938493;151;27402;-77
2022/07/21 07:07:12;;;;;;;3.20;3.00;;;35.40;52.80;;;;;;939186;151;27417;-77
2022/07/21 07:09:38;;;;;;;2.95;2.65;;;35.40;53.20;;;;;;939329;151;27462;-77
2022/07/21 07:12:08;;;;;;;3.00;2.77;;;35.40;52.60;;;;;;939151;151;27415;-77
2022/07/21 07:14:32;;;;;;;2.87;2.67;;;35.40;52.60;;;;;;937038;151;27367;-77
2022/07/21 07:16:58;;;;;;;2.70;2.50;;;35.50;52.30;;;;;;937515;151;27330;-77
2022/07/21 07:19:25;;;;;;;2.75;2.58;;;35.50;51.70;;;;;;937632;151;27335;-77
2022/07/21 07:21:51;;;;;;;3.62;2.87;;;35.50;51.50;;;;;;938414;151;27458;-77
2022/07/21 07:24:18;;;;;;;3.05;2.80;;;35.50;51.60;;;;;;937365;150;27390;-77
2022/07/21 07:26:44;;;;;;;3.22;2.92;;;35.40;51.40;;;;;;936937;151;27390;-77
2022/07/21 07:29:11;;;;;;;2.85;2.65;;;35.40;51.20;;;;;;938698;151;27315;-77
2022/07/21 07:31:38;;;;;;;2.72;2.50;;;35.30;50.80;;;;;;938090;151;27338;-77
2022/07/21 07:34:04;;;;;;;3.20;2.90;;;35.30;50.80;;;;;;937128;151;27378;-77
2022/07/21 07:36:31;;;;;;;3.95;2.98;;;35.40;51.90;;;;;;938465;151;26683;-77
2022/07/21 07:38:57;;;;;;;3.10;2.75;;;35.70;52.70;;;;;;938434;151;26269;-77
2022/07/21 07:41:24;;;;;;;2.85;2.62;;;36.30;53.10;;;;;;937494;151;26288;-76
2022/07/21 07:43:51;;;;;;;2.85;2.65;;;37.10;52.80;;;;;;938323;150;27311;-77
2022/07/21 07:46:17;;;;;;;3.02;2.50;;;37.80;50.80;;;;;;939498;151;26249;-77
2022/07/21 07:48:44;;;;;;;2.80;2.42;;;38.50;49.90;;;;;;938208;151;26251;-77
2022/07/21 07:51:10;;;;;;;3.00;2.70;;;38.90;48.30;;;;;;937973;149;26314;-76
2022/07/21 07:53:37;;;;;;;2.95;2.22;;;39.10;46.20;;;;;;934823;151;26273;-77
2022/07/21 07:56:04;;;;;;;3.00;2.45;;;39.00;45.30;;;;;;950880;148;26320;-77
2022/07/21 07:58:30;;;;;;;3.35;2.50;;;38.70;44.80;;;;;;933649;151;27347;-77
2022/07/21 08:00:57;;;;;;;2.60;2.40;;;38.30;44.60;;;;;;950426;149;27284;-77
2022/07/21 08:03:23;;;;;;;3.02;2.70;;;37.90;44.70;;;;;;950695;149;26372;-76
2022/07/21 08:05:50;;;;;;;3.35;2.72;;;37.50;45.20;;;;;;935054;151;26281;-77
2022/07/21 08:08:16;;;;;;;2.70;2.50;;;37.20;45.90;;;;;;921685;151;27399;-77
2022/07/21 08:10:45;;;;;;;4.25;2.70;;;37.00;46.10;;;;;;945842;148;26246;-76
2022/07/21 08:13:10;;;;;;;3.87;2.55;;;36.90;46.10;;;;;;945340;148;27357;-77
2022/07/21 08:15:36;;;;;;;2.87;2.67;;;36.70;45.60;;;;;;950395;149;27868;-77
2022/07/21 08:18:03;;;;;;;2.47;2.27;;;36.50;45.30;;;;;;950205;149;27420;-76
2022/07/21 08:20:29;;;;;;;3.52;2.58;;;36.20;45.30;;;;;;950689;149;29014;-77
2022/07/21 08:22:56;;;;;;;2.75;2.55;;;36.10;45.80;;;;;;950408;149;26217;-77
2022/07/21 08:25:23;;;;;;;2.37;2.17;;;36.10;46.90;;;;;;951201;149;26239;-76
2022/07/21 08:27:49;;;;;;;2.72;2.52;;;36.20;47.40;;;;;;937642;151;26237;-77
2022/07/21 08:30:16;;;;;;;2.40;2.20;;;36.60;47.00;;;;;;938657;151;27358;-76
2022/07/21 08:32:42;;;;;;;2.27;2.05;;;36.90;46.20;;;;;;937331;151;26356;-76
2022/07/21 08:35:09;;;;;;;2.17;2.02;;;37.20;45.50;;;;;;950752;149;26232;-77
2022/07/21 08:37:36;;;;;;;2.20;2.10;;;37.40;45.40;;;;;;951204;149;26264;-77
2022/07/21 08:40:05;;;;;;;2.67;2.47;;;37.50;44.70;;;;;;950745;149;26255;-77
2022/07/21 08:42:32;;;;;;;2.70;2.50;;;37.60;44.50;;;;;;950924;149;26268;-76
2022/07/21 08:44:58;;;;;;;3.12;2.70;;;37.70;44.70;;;;;;952066;149;26251;-77
2022/07/21 08:47:25;;;;;;;2.50;2.30;;;37.80;44.30;;;;;;950212;149;26208;-76
2022/07/21 08:49:51;;;;;;;2.20;2.10;;;37.80;43.50;;;;;;948036;148;26300;-77
2022/07/21 08:52:18;;;;;;;4.05;2.00;;;37.80;42.70;;;;;;945304;149;27372;-77
2022/07/21 08:54:45;;;;;;;2.40;2.20;;;37.50;42.50;;;;;;937915;151;27370;-77
2022/07/21 08:57:11;;;;;;;2.50;2.35;;;37.30;42.10;;;;;;930357;151;27374;-77
2022/07/21 08:59:38;;;;;;;2.45;2.35;;;36.90;42.00;;;;;;933438;151;27413;-77
2022/07/21 09:02:04;;;;;;;2.50;2.25;;;36.40;42.30;;;;;;950705;148;27303;-77
2022/07/21 09:04:31;;;;;;;2.92;2.72;;;36.00;42.40;;;;;;950790;149;27337;-77
2022/07/21 09:06:57;;;;;;;3.02;2.60;;;35.50;42.70;;;;;;951318;149;27270;-77
2022/07/21 09:09:24;;;;;;;2.80;2.60;;;35.10;43.10;;;;;;950328;149;27357;-77
2022/07/21 09:11:51;;;;;;;3.22;2.70;;;34.60;43.40;;;;;;931914;151;27810;-77
2022/07/21 09:14:18;;;;;;;4.05;2.77;;;34.20;43.70;;;;;;937657;149;27286;-77
2022/07/21 09:16:44;;;;;;;2.90;2.70;;;33.80;44.20;;;;;;937671;150;27311;-77
2022/07/21 09:19:28;;;;;;;2.98;2.77;;;33.30;44.70;;;;;;938526;149;27729;-77
2022/07/21 09:21:55;;;;;;;3.42;2.95;;;32.90;45.40;;;;;;938096;149;27887;-76
2022/07/21 09:24:22;;;;;;;3.33;3.02;;;32.50;46.10;;;;;;936765;150;27321;-76
2022/07/21 09:27:19;;;;;;;3.90;3.10;;;32.20;47.00;;;;;;923897;152;27307;-76
2022/07/21 09:29:57;;;;;;;2.72;2.52;;;32.20;47.90;;;;;;931230;152;27441;-77
2022/07/21 09:32:32;;;;;;;4.35;2.75;;;32.40;49.30;;;;;;930454;152;27374;-77
2022/07/21 09:35:05;;;;;;;3.47;2.75;;;32.80;49.80;;;;;;931950;150;27396;-77
2022/07/21 09:37:32;;;;;;;3.05;2.70;;;33.40;49.80;;;;;;930316;152;27444;-76
2022/07/21 09:39:59;;;;;;;2.70;2.50;;;34.10;49.40;;;;;;933587;151;26394;-76
2022/07/21 09:42:25;;;;;;;2.87;2.65;;;34.90;49.00;;;;;;931598;151;26341;-76
2022/07/21 09:44:51;;;;;;;2.58;2.37;;;35.50;48.30;;;;;;931335;152;27884;-76
2022/07/21 09:47:18;;;;;;;2.83;2.62;;;36.30;47.50;;;;;;930126;151;26349;-77
2022/07/21 09:49:45;;;;;;;2.27;2.08;;;37.00;46.60;;;;;;932437;151;26292;-77
2022/07/21 09:52:29;;;;;;;1.87;1.77;;;37.60;45.80;;;;;;930564;150;26332;-76
2022/07/21 09:54:56;;;;;;;2.02;1.92;;;38.20;44.30;;;;;;931484;151;26277;-77
2022/07/21 09:57:22;;;;;;;2.10;1.95;;;38.80;44.00;;;;;;931028;151;26264;-77
2022/07/21 09:59:49;;;;;;;2.25;1.90;;;39.20;43.30;;;;;;932204;152;26253;-77
2022/07/21 10:02:18;;;;;;;3.33;2.12;;;39.60;42.50;;;;;;933357;152;26326;-77
2022/07/21 10:04:48;;;;;;;2.15;1.95;;;40.00;42.20;;;;;;933366;152;26407;-77
2022/07/21 10:07:14;;;;;;;2.22;2.02;;;40.30;41.60;;;;;;931992;151;27617;-77
2022/07/21 10:09:41;;;;;;;1.70;1.60;;;40.50;40.70;;;;;;932658;152;26279;-77
2022/07/21 10:12:07;;;;;;;2.05;1.90;;;40.60;39.90;;;;;;932557;151;26531;-77
2022/07/21 10:14:34;;;;;;;1.92;1.80;;;40.60;39.30;;;;;;931477;152;26753;-76
2022/07/21 10:17:00;;;;;;;2.55;2.10;;;40.50;38.90;;;;;;931864;151;26268;-77
2022/07/21 10:19:27;;;;;;;2.60;2.40;;;40.30;38.00;;;;;;931832;151;26230;-77
2022/07/21 10:22:21;;;;;;;2.25;2.10;;;40.00;37.80;;;;;;931467;152;26334;-77
2022/07/21 10:24:45;;;;;;;2.27;2.17;;;39.50;38.00;;;;;;931137;152;26254;-77
2022/07/21 10:27:12;;;;;;;2.50;2.10;;;39.00;38.50;;;;;;931556;152;26289;-77
2022/07/21 10:29:53;;;;;;;2.95;2.35;;;38.60;38.70;;;;;;931830;152;27388;-77
2022/07/21 10:32:24;;;;;;;2.33;2.20;;;38.30;39.00;;;;;;932928;151;27394;-77
2022/07/21 10:34:50;;;;;;;2.10;2.00;;;37.90;38.90;;;;;;931518;152;26692;-77
2022/07/21 10:37:40;;;;;;;2.27;2.00;;;37.50;38.80;;;;;;932167;149;27419;-77
2022/07/21 10:40:19;;;;;;;2.42;2.10;;;37.10;39.10;;;;;;900035;157;27419;-76
2022/07/21 10:43:01;;;;;;;2.72;2.50;;;36.70;39.50;;;;;;914913;153;27345;-77
2022/07/21 10:45:36;;;;;;;2.95;2.70;;;36.30;39.80;;;;;;938566;149;27378;-77
2022/07/21 10:48:02;;;;;;;2.72;2.50;;;36.00;40.10;;;;;;937099;150;27298;-77
2022/07/21 10:50:35;;;;;;;2.85;2.65;;;35.60;40.20;;;;;;937871;149;27373;-77
2022/07/21 10:53:13;;;;;;;2.80;2.60;;;35.30;40.40;;;;;;935948;150;27406;-77
2022/07/21 10:55:39;;;;;;;2.65;2.45;;;35.00;40.80;;;;;;933487;151;27483;-77
2022/07/21 10:58:24;;;;;;;2.50;2.40;;;34.70;41.20;;;;;;934281;151;27389;-77
2022/07/21 11:00:59;;;;;;;2.60;2.40;;;34.40;41.80;;;;;;887946;158;27430;-76
2022/07/21 11:03:35;;;;;;;3.08;2.87;;;34.10;41.20;;;;;;905233;152;27367;-76
2022/07/21 11:06:07;;;;;;;3.50;3.30;;;33.80;41.50;;;;;;937182;150;27449;-77
2022/07/21 11:08:34;;;;;;;4.15;3.02;;;33.50;41.60;;;;;;932169;152;27327;-77
2022/07/21 11:11:12;;;;;;;4.60;2.90;;;33.20;42.00;;;;;;930714;152;27421;-77
2022/07/21 11:13:59;;;;;;;2.90;2.65;;;32.80;42.20;;;;;;929406;152;27380;-79
2022/07/21 11:16:54;;;;;;;2.95;2.62;;;32.50;42.80;;;;;;907059;154;27343;-78
2022/07/21 11:19:33;;;;;;;2.87;2.55;;;32.30;43.00;;;;;;923796;155;27404;-78
2022/07/21 11:21:59;;;;;;;3.00;2.70;;;32.00;43.10;;;;;;933150;151;27354;-79
2022/07/21 11:24:25;;;;;;;3.22;2.98;;;31.80;43.30;;;;;;938892;152;27318;-78
2022/07/21 11:26:54;;;;;;;2.95;2.75;;;31.60;43.60;;;;;;928383;153;27264;-79
2022/07/21 11:29:21;;;;;;;3.02;2.83;;;31.40;44.00;;;;;;925531;153;27487;-78
2022/07/21 11:31:48;;;;;;;3.67;2.92;;;31.30;44.50;;;;;;925826;153;27413;-79
2022/07/21 11:34:14;;;;;;;2.80;2.60;;;31.30;44.70;;;;;;939751;151;27446;-78
2022/07/21 11:36:41;;;;;;;2.95;2.75;;;31.30;44.90;;;;;;931938;154;27393;-78
2022/07/21 11:39:07;;;;;;;2.45;2.22;;;31.40;45.00;;;;;;931709;153;27421;-78
2022/07/21 11:41:34;;;;;;;3.25;2.95;;;31.50;45.00;;;;;;931510;152;27443;-78
2022/07/21 11:44:01;;;;;;;2.92;2.72;;;31.60;45.20;;;;;;931663;151;27439;-78
2022/07/21 11:46:27;;;;;;;2.95;2.50;;;31.70;45.10;;;;;;924289;152;27485;-78
2022/07/21 11:49:00;;;;;;;2.67;2.47;;;31.90;44.70;;;;;;933878;151;27313;-78
2022/07/21 11:51:26;;;;;;;3.42;2.60;;;32.00;44.50;;;;;;924970;152;27396;-78
2022/07/21 11:53:53;;;;;;;3.67;2.52;;;32.10;44.50;;;;;;925095;155;27376;-78
2022/07/21 11:56:19;;;;;;;3.35;2.60;;;32.10;44.60;;;;;;925171;155;27389;-78
2022/07/21 11:58:46;;;;;;;2.98;2.77;;;32.20;44.40;;;;;;924853;154;27371;-78
2022/07/21 12:01:13;;;;;;;2.50;2.30;;;32.30;44.40;;;;;;924917;154;27364;-78
2022/07/21 12:03:48;;;;;;;3.15;2.30;;;32.40;44.00;;;;;;925612;154;27342;-78
2022/07/21 12:06:15;;;;;;;2.30;2.20;;;32.50;43.60;;;;;;924564;154;27460;-78
2022/07/21 12:08:42;;;;;;;3.20;2.90;;;32.50;43.40;;;;;;924433;153;27899;-78
2022/07/21 12:11:08;;;;;;;2.22;2.10;;;32.60;43.40;;;;;;925311;154;27375;-78
2022/07/21 12:13:53;;;;;;;2.05;1.95;;;32.60;43.30;;;;;;925664;153;27315;-78
2022/07/21 12:16:20;;;;;;;2.58;2.47;;;32.60;43.20;;;;;;932790;152;27292;-78
2022/07/21 12:18:46;;;;;;;4.47;2.05;;;32.60;43.10;;;;;;932047;151;27369;-78
2022/07/21 12:21:13;;;;;;;2.45;2.33;;;32.50;42.90;;;;;;932574;152;27315;-78
2022/07/21 12:23:39;;;;;;;2.45;2.20;;;32.50;42.80;;;;;;931763;152;27455;-78
2022/07/21 12:26:06;;;;;;;2.08;1.87;;;32.50;42.70;;;;;;932856;152;27370;-78
2022/07/21 12:28:47;;;;;;;3.58;2.35;;;32.50;42.60;;;;;;931027;152;27356;-78
2022/07/21 12:31:16;;;;;;;1.90;1.80;;;32.40;42.40;;;;;;931468;152;27449;-78
2022/07/21 12:33:41;;;;;;;2.87;1.90;;;32.40;42.50;;;;;;933039;152;27276;-78
2022/07/21 12:36:07;;;;;;;1.72;1.62;;;32.40;42.60;;;;;;930900;152;27358;-78
2022/07/21 12:38:39;;;;;;;1.98;1.80;;;32.40;42.70;;;;;;931999;152;27347;-78
2022/07/21 12:41:06;;;;;;;1.85;1.75;;;32.40;42.50;;;;;;910723;152;27362;-78
2022/07/21 12:43:33;;;;;;;1.87;1.77;;;32.40;42.40;;;;;;932354;152;27400;-78
2022/07/21 12:46:12;;;;;;;2.55;1.87;;;32.40;42.60;;;;;;932744;151;27322;-78
2022/07/21 12:48:38;;;;;;;2.90;1.82;;;32.50;42.90;;;;;;931939;149;27403;-77
2022/07/21 12:51:14;;;;;;;2.20;2.00;;;32.50;42.60;;;;;;932297;152;27760;-78